Time;durP1;ratioP1;P1;durP2;ratioP2;P2;SDS_P1;SDS_P2;PMS_P1;PMS_P2;Temp;Humidity;BMP_temperature;BMP_pressure;BME280_temperature;BME280_humidity;BME280_pressure;Samples;Min_cycle;Max_cycle;Signal;HPM_P1;HPM_P2
2021/11/15 12:58:52;;;;;;;;;;;;;;;25.94;30.40;97778.53;5043150;27;9694;-46
2021/11/15 13:01:19;;;;;;;;;;;;;;;27.51;27.68;97773.91;5032461;28;1372;-47
2021/11/15 13:03:44;;;;;;;;;;;;;;;28.12;26.41;97781.16;5032709;28;1776;-47
2021/11/15 13:06:12;;;;;;;;;;;;;;;28.33;25.92;97774.03;5030413;28;1400;-47
2021/11/15 13:08:37;;;;;;;;;;;;;;;28.31;26.24;97779.50;5029719;28;1495;-49
2021/11/15 13:11:03;;;;;;;;;;;;;;;28.42;25.99;97788.31;5034532;28;1424;-47
2021/11/15 13:13:28;;;;;;;;;;;;;;;28.55;25.87;97784.47;5030076;28;1699;-48
2021/11/15 13:15:54;;;;;;;;;;;;;;;28.49;25.70;97787.66;5035112;28;1531;-46
2021/11/15 13:18:19;;;;;;;;;;;;;;;29.00;25.80;97783.25;5027634;28;9798;-50
2021/11/15 13:20:44;;;;;;;;;;;;;;;28.00;26.63;97778.59;5029823;28;1606;-49
2021/11/15 13:23:09;;;;;;;;;;;;;;;28.54;26.34;97789.91;5032959;28;1176;-49
2021/11/15 13:25:34;;;;;;;;;;;;;;;28.12;26.21;97779.34;5031566;28;1630;-50
2021/11/15 13:28:00;;;;;;;;;;;;;;;27.90;26.54;97775.06;5034208;28;1470;-49
2021/11/15 13:30:25;;;;;;;;;;;;;;;28.45;26.05;97780.94;5028457;28;1756;-49
2021/11/15 13:32:51;;;;;;;;;;;;;;;28.52;26.13;97776.78;5033752;28;1108;-50
2021/11/15 13:35:16;;;;;;;;;;;;;;;28.71;25.23;97783.13;5031157;28;1400;-51
2021/11/15 13:37:41;;;;;;;;;;;;;;;28.30;26.03;97775.16;5031665;28;1918;-48
2021/11/15 13:40:07;;;;;;;;;;;;;;;28.48;25.86;97785.13;5037164;28;1116;-49
2021/11/15 13:42:32;;;;;;;;;;;;;;;28.83;25.16;97779.38;5030760;28;1480;-51
2021/11/15 13:44:58;;;;;;;;;;;;;;;29.13;24.13;97775.81;5033909;28;2462;-50
2021/11/15 13:47:25;;;;;;;;;;;;;;;29.30;24.25;97769.00;5033274;28;1307;-50
2021/11/15 13:49:50;;;;;;;;;;;;;;;29.24;24.26;97769.56;5032931;28;1411;-51
2021/11/15 13:52:15;;;;;;;;;;;;;;;29.10;23.86;97774.28;5032656;28;1641;-50
2021/11/15 13:54:43;;;;;;;;;;;;;;;28.94;24.76;97778.47;5033150;28;1215;-49
2021/11/15 13:57:08;;;;;;;;;;;;;;;28.96;24.38;97773.84;5029802;28;1910;-48
2021/11/15 13:59:33;;;;;;;;;;;;;;;28.55;25.13;97781.81;5033333;28;1519;-51
2021/11/15 14:01:59;;;;;;;;;;;;;;;27.11;27.07;97777.19;5035446;28;1084;-51
2021/11/15 14:04:24;;;;;;;;;;;;;;;27.18;27.15;97770.44;5027978;28;1786;-49
2021/11/15 14:06:49;;;;;;;;;;;;;;;27.10;27.36;97767.59;5030576;28;1544;-51
2021/11/15 14:09:14;;;;;;;;;;;;;;;26.92;27.83;97779.59;5026152;28;1276;-50
2021/11/15 14:11:39;;;;;;;;;;;;;;;27.07;27.82;97780.22;5017570;28;1547;-49
2021/11/15 14:14:05;;;;;;;;;;;;;;;27.19;27.77;97779.22;5019014;28;1582;-50
2021/11/15 14:16:30;;;;;;;;;;;;;;;27.00;27.90;97782.47;5018829;28;1902;-50
2021/11/15 14:18:55;;;;;;;;;;;;;;;28.59;25.63;97791.16;5020775;28;1570;-48
2021/11/15 14:21:20;;;;;;;;;;;;;;;28.13;25.68;97785.50;5014869;28;1503;-50
2021/11/15 14:23:46;;;;;;;;;;;;;;;28.17;26.01;97784.25;5020874;28;1192;-49
2021/11/15 14:26:11;;;;;;;;;;;;;;;27.97;26.27;97796.59;5017624;28;1511;-48
2021/11/15 14:28:36;;;;;;;;;;;;;;;27.48;26.96;97788.22;5020311;28;1296;-51
2021/11/15 14:31:02;;;;;;;;;;;;;;;27.91;26.43;97787.34;5014867;28;1591;-50
2021/11/15 14:33:27;;;;;;;;;;;;;;;28.57;25.39;97787.81;5023336;28;1145;-49
2021/11/15 14:35:54;;;;;;;;;;;;;;;28.63;25.59;97789.09;5014762;28;1503;-50
2021/11/15 14:38:20;;;;;;;;;;;;;;;28.56;25.92;97786.16;5015591;28;1906;-50
2021/11/15 14:40:45;;;;;;;;;;;;;;;28.76;25.39;97787.06;5016250;28;1496;-48
2021/11/15 14:43:11;;;;;;;;;;;;;;;28.77;25.39;97791.38;5018098;28;1563;-49
2021/11/15 14:45:36;;;;;;;;;;;;;;;28.78;25.24;97793.06;5015676;28;1364;-49
2021/11/15 14:48:01;;;;;;;;;;;;;;;29.45;24.41;97799.47;5018050;28;1865;-50
2021/11/15 14:50:27;;;;;;;;;;;;;;;29.30;24.66;97796.38;5017484;28;1317;-49
2021/11/15 14:52:52;;;;;;;;;;;;;;;29.09;24.50;97803.66;5017614;28;1627;-48
2021/11/15 14:55:17;;;;;;;;;;;;;;;29.09;24.83;97801.84;5017750;28;1324;-49
2021/11/15 14:57:43;;;;;;;;;;;;;;;29.40;24.28;97799.91;5017261;28;1941;-50
2021/11/15 15:00:09;;;;;;;;;;;;;;;29.40;24.46;97796.41;5020080;28;1408;-48
2021/11/15 15:02:34;;;;;;;;;;;;;;;29.22;24.58;97798.06;5014533;28;1429;-50
2021/11/15 15:05:00;;;;;;;;;;;;;;;28.86;25.00;97795.03;5015135;28;1509;-48
2021/11/15 15:07:25;;;;;;;;;;;;;;;29.43;24.25;97809.41;5017850;28;1323;-51
2021/11/15 15:09:50;;;;;;;;;;;;;;;29.05;24.69;97803.06;5020229;28;1513;-50
2021/11/15 15:12:15;;;;;;;;;;;;;;;29.50;24.40;97802.59;5018016;28;1184;-50
2021/11/15 15:14:41;;;;;;;;;;;;;;;29.51;24.12;97811.41;5017839;28;1500;-49
2021/11/15 15:17:08;;;;;;;;;;;;;;;29.18;24.52;97808.97;5018062;28;1969;-50
2021/11/15 15:19:37;;;;;;;;;;;;;;;29.72;23.97;97807.63;5016149;28;1657;-50
2021/11/15 15:22:03;;;;;;;;;;;;;;;29.55;23.96;97805.69;5017946;28;939;-49
2021/11/15 15:24:28;;;;;;;;;;;;;;;29.28;24.30;97808.97;5016235;28;1516;-50
2021/11/15 15:26:53;;;;;;;;;;;;;;;29.45;24.31;97804.78;5017617;28;1239;-51
2021/11/15 15:29:19;;;;;;;;;;;;;;;29.43;24.09;97798.78;5016927;28;1300;-49
2021/11/15 15:31:44;;;;;;;;;;;;;;;29.51;24.25;97793.63;5016601;28;1438;-50
2021/11/15 15:34:10;;;;;;;;;;;;;;;29.32;24.22;97790.97;5017217;28;1412;-49
2021/11/15 15:36:35;;;;;;;;;;;;;;;29.11;24.92;97789.25;5016089;28;1969;-50
2021/11/15 15:39:00;;;;;;;;;;;;;;;29.38;24.27;97787.72;5017681;28;1572;-49
2021/11/15 15:41:26;;;;;;;;;;;;;;;28.58;25.54;97789.50;5018455;28;1080;-50
2021/11/15 15:43:53;;;;;;;;;;;;;;;28.68;26.76;97804.63;5013028;28;1600;-49
2021/11/15 15:46:18;;;;;;;;;;;;;;;28.74;25.38;97804.91;5018795;28;1160;-50
2021/11/15 15:48:45;;;;;;;;;;;;;;;29.84;24.16;97805.63;5017641;28;1362;-49
2021/11/15 15:51:10;;;;;;;;;;;;;;;29.45;24.68;97795.00;5016003;28;1489;-50
2021/11/15 15:53:35;;;;;;;;;;;;;;;29.48;24.37;97796.56;5018081;28;1683;-49
2021/11/15 15:56:00;;;;;;;;;;;;;;;30.03;23.71;97794.16;5020018;28;1144;-50
2021/11/15 15:58:27;;;;;;;;;;;;;;;28.97;25.05;97789.63;5014358;28;1982;-47
2021/11/15 16:00:52;;;;;;;;;;;;;;;29.41;24.55;97792.78;5015122;28;1042;-50
2021/11/15 16:03:25;;;;;;;;;;;;;;;29.55;24.21;97792.41;5013793;28;1372;-48
2021/11/15 16:06:14;;;;;;;;;;;;;;;29.67;24.16;97793.91;5017268;28;1416;-48
2021/11/15 16:14:44;;;;;;;;;;;;;;;29.17;24.87;97794.03;5016354;28;1475;-48
2021/11/15 16:17:08;;;;;;;;;;;;;;;29.51;24.36;97804.28;5018325;28;1898;-48
2021/11/15 16:19:27;;;;;;;;;;;;;;;29.30;24.70;97800.88;5018121;28;1847;-50
2021/11/15 16:21:52;;;;;;;;;;;;;;;29.31;24.61;97806.06;5018121;28;1136;-49
2021/11/15 16:24:17;;;;;;;;;;;;;;;28.96;25.26;97792.44;5018142;28;1187;-51
2021/11/15 16:26:43;;;;;;;;;;;;;;;28.24;25.99;97786.25;5018137;28;1485;-49
2021/11/15 16:29:08;;;;;;;;;;;;;;;27.33;27.29;97789.50;5016227;28;1369;-51
2021/11/15 16:31:33;;;;;;;;;;;;;;;27.25;27.57;97786.63;5015472;28;1408;-50
2021/11/15 16:34:02;;;;;;;;;;;;;;;27.29;27.43;97793.38;5017338;28;1389;-49
2021/11/15 16:36:27;;;;;;;;;;;;;;;27.30;27.64;97789.75;5017173;28;1024;-49
2021/11/15 16:38:52;;;;;;;;;;;;;;;27.34;27.51;97796.50;5014944;28;1902;-50
2021/11/15 16:41:18;;;;;;;;;;;;;;;27.43;27.31;97792.25;5017992;28;1124;-51
2021/11/15 16:43:43;;;;;;;;;;;;;;;27.34;27.42;97799.16;5016386;28;1476;-49
2021/11/15 16:46:08;;;;;;;;;;;;;;;27.55;27.22;97792.06;5018475;28;1183;-48
2021/11/15 16:48:34;;;;;;;;;;;;;;;27.59;27.25;97797.13;5016637;28;1248;-50
2021/11/15 16:50:59;;;;;;;;;;;;;;;27.76;27.15;97802.72;5013890;28;1492;-48
2021/11/15 16:53:24;;;;;;;;;;;;;;;28.33;26.36;97801.41;5017615;28;1247;-51
2021/11/15 16:55:57;;;;;;;;;;;;;;;29.28;24.83;97802.81;5013918;28;1365;-50
2021/11/15 16:58:23;;;;;;;;;;;;;;;29.99;23.98;97800.72;5015534;28;1906;-48
2021/11/15 17:00:48;;;;;;;;;;;;;;;29.96;23.82;97806.34;5010704;28;1531;-49
2021/11/15 17:03:13;;;;;;;;;;;;;;;29.82;24.35;97812.09;5014841;28;1448;-48
2021/11/15 17:05:39;;;;;;;;;;;;;;;29.79;24.22;97809.72;5014645;28;1423;-50
2021/11/15 17:08:08;;;;;;;;;;;;;;;29.50;24.36;97802.59;5015658;28;1378;-48
2021/11/15 17:10:34;;;;;;;;;;;;;;;29.48;24.50;97816.00;5016669;28;1001;-48
2021/11/15 17:13:00;;;;;;;;;;;;;;;29.49;24.46;97803.53;5016144;28;1703;-47
2021/11/15 17:15:27;;;;;;;;;;;;;;;29.67;24.39;97804.53;5014361;28;1401;-48
2021/11/15 17:17:52;;;;;;;;;;;;;;;29.69;24.28;97805.22;5016630;28;1985;-49
2021/11/15 17:20:17;;;;;;;;;;;;;;;29.32;24.65;97804.25;5012653;28;1395;-48
2021/11/15 17:22:43;;;;;;;;;;;;;;;29.45;24.72;97802.97;5017079;28;1519;-49
2021/11/15 17:25:08;;;;;;;;;;;;;;;29.23;24.87;97800.59;5016624;28;1587;-49
2021/11/15 17:27:34;;;;;;;;;;;;;;;28.98;25.33;97790.47;5015597;28;1433;-48
2021/11/15 17:30:02;;;;;;;;;;;;;;;29.28;24.73;97784.22;5017809;28;1638;-48
2021/11/15 17:32:27;;;;;;;;;;;;;;;28.89;25.09;97786.78;5015356;28;1207;-48
2021/11/15 17:34:53;;;;;;;;;;;;;;;29.43;24.82;97790.81;5014764;28;1460;-48
2021/11/15 17:37:18;;;;;;;;;;;;;;;29.46;24.62;97787.88;5019223;28;1945;-49
2021/11/15 17:39:43;;;;;;;;;;;;;;;29.12;24.98;97793.56;5015927;28;1344;-48
2021/11/15 17:42:08;;;;;;;;;;;;;;;29.37;24.62;97794.84;5015883;28;1108;-50
2021/11/15 17:44:33;;;;;;;;;;;;;;;29.17;24.93;97793.19;5015586;28;1448;-47
2021/11/15 17:47:03;;;;;;;;;;;;;;;29.32;24.82;97797.13;5019738;28;2211;-49
2021/11/15 17:49:28;;;;;;;;;;;;;;;29.31;24.79;97800.75;5017367;28;1367;-48
2021/11/15 17:52:01;;;;;;;;;;;;;;;29.59;24.37;97804.41;5020520;28;1207;-48
2021/11/15 17:54:28;;;;;;;;;;;;;;;29.63;24.43;97799.66;5021360;28;1588;-48
2021/11/15 17:56:58;;;;;;;;;;;;;;;29.54;24.41;97801.31;5021120;28;1906;-45
2021/11/15 17:59:26;;;;;;;;;;;;;;;29.40;24.72;97804.38;5018554;28;1578;-48
2021/11/15 18:01:52;;;;;;;;;;;;;;;29.33;24.65;97797.94;5020706;28;1141;-48
2021/11/15 18:04:17;;;;;;;;;;;;;;;29.61;24.33;97799.78;5013656;28;1444;-50
2021/11/15 18:06:45;;;;;;;;;;;;;;;28.62;25.31;97796.22;5020428;28;1108;-49
2021/11/15 18:09:10;;;;;;;;;;;;;;;28.55;25.67;97797.75;5016494;28;1652;-50
2021/11/15 18:11:35;;;;;;;;;;;;;;;28.04;26.59;97797.72;5021227;28;1238;-49
2021/11/15 18:14:09;;;;;;;;;;;;;;;29.40;24.69;97791.09;5013370;28;1703;-49
2021/11/15 18:16:37;;;;;;;;;;;;;;;29.93;23.97;97794.16;5017224;28;1400;-49
2021/11/15 18:19:05;;;;;;;;;;;;;;;29.46;24.44;97796.66;5017846;28;1968;-50
2021/11/15 18:21:30;;;;;;;;;;;;;;;29.63;24.39;97794.34;5020001;28;962;-50
2021/11/15 18:23:55;;;;;;;;;;;;;;;29.75;24.23;97798.53;5021106;28;1132;-48
2021/11/15 18:26:21;;;;;;;;;;;;;;;29.69;24.23;97791.94;5019772;28;1161;-48
2021/11/15 18:28:46;;;;;;;;;;;;;;;30.02;23.84;97801.28;5017341;28;1603;-49
2021/11/15 18:31:11;;;;;;;;;;;;;;;29.94;23.86;97805.63;5019970;28;1195;-50
2021/11/15 18:33:37;;;;;;;;;;;;;;;30.08;23.89;97799.03;5018701;28;1602;-48
2021/11/15 18:36:02;;;;;;;;;;;;;;;29.64;24.09;97796.03;5019375;28;1427;-48
2021/11/15 18:38:28;;;;;;;;;;;;;;;29.74;24.05;97799.50;5017140;28;1989;-50
2021/11/15 18:40:53;;;;;;;;;;;;;;;30.16;23.70;97796.50;5020524;28;1597;-49
2021/11/15 18:43:22;;;;;;;;;;;;;;;29.89;24.11;97790.13;5017530;28;1439;-49
2021/11/15 18:45:47;;;;;;;;;;;;;;;29.98;23.62;97793.72;5018777;28;1558;-49
2021/11/15 18:48:13;;;;;;;;;;;;;;;30.07;23.71;97784.88;5018094;28;1515;-49
2021/11/15 18:50:38;;;;;;;;;;;;;;;30.18;23.72;97784.75;5017602;28;1412;-50
2021/11/15 18:53:04;;;;;;;;;;;;;;;30.08;23.81;97794.56;5018488;28;1209;-48
2021/11/15 18:55:29;;;;;;;;;;;;;;;29.78;24.02;97792.06;5018975;28;1188;-49
2021/11/15 18:57:55;;;;;;;;;;;;;;;29.54;24.28;97798.66;5017231;28;1966;-49
2021/11/15 19:00:21;;;;;;;;;;;;;;;29.44;24.52;97798.63;5016297;28;1396;-47
2021/11/15 19:02:46;;;;;;;;;;;;;;;29.57;24.41;97798.41;5018509;28;1034;-47
2021/11/15 19:05:15;;;;;;;;;;;;;;;29.46;24.74;97803.81;5013164;28;1424;-47
2021/11/15 19:07:52;;;;;;;;;;;;;;;29.75;23.85;97798.53;5018348;28;1292;-49
2021/11/15 19:10:27;;;;;;;;;;;;;;;29.72;24.09;97807.63;5018707;28;1064;-49
2021/11/15 19:12:55;;;;;;;;;;;;;;;29.83;23.83;97811.09;5014557;28;1289;-49
2021/11/15 19:15:20;;;;;;;;;;;;;;;29.51;24.40;97803.44;5014041;28;1358;-50
2021/11/15 19:17:45;;;;;;;;;;;;;;;29.67;24.11;97804.53;5015972;28;1898;-48
2021/11/15 19:20:10;;;;;;;;;;;;;;;29.68;24.07;97803.56;5017429;28;1400;-50
2021/11/15 19:22:36;;;;;;;;;;;;;;;29.41;24.34;97806.06;5018465;28;1163;-47
2021/11/15 19:25:01;;;;;;;;;;;;;;;29.99;23.95;97803.38;5019763;28;1013;-49
2021/11/15 19:27:30;;;;;;;;;;;;;;;29.99;23.79;97803.38;5019367;28;1257;-49
2021/11/15 19:29:56;;;;;;;;;;;;;;;29.74;23.88;97802.16;5017013;28;1433;-48
2021/11/15 19:32:22;;;;;;;;;;;;;;;29.81;24.14;97799.78;5019236;28;1214;-48
2021/11/15 19:34:53;;;;;;;;;;;;;;;30.02;23.82;97806.63;5016688;28;1460;-46
2021/11/15 19:37:18;;;;;;;;;;;;;;;29.71;23.94;97803.28;5018231;28;1967;-48
2021/11/15 19:39:44;;;;;;;;;;;;;;;29.72;24.00;97804.97;5018501;28;1179;-48
2021/11/15 19:42:10;;;;;;;;;;;;;;;29.80;23.92;97811.41;5018793;28;1167;-48
2021/11/15 19:44:35;;;;;;;;;;;;;;;29.87;23.87;97820.50;5017694;28;1463;-49
2021/11/15 19:47:01;;;;;;;;;;;;;;;29.79;23.95;97812.38;5011279;28;1121;-48
2021/11/15 19:49:26;;;;;;;;;;;;;;;29.64;24.25;97818.13;5010180;28;1486;-50
2021/11/15 19:51:54;;;;;;;;;;;;;;;29.65;24.03;97816.31;5015124;28;1119;-48
2021/11/15 19:54:20;;;;;;;;;;;;;;;29.86;24.09;97824.09;5011476;28;1270;-48
2021/11/15 19:56:46;;;;;;;;;;;;;;;29.71;24.17;97821.91;5007223;28;1961;-48
2021/11/15 19:59:11;;;;;;;;;;;;;;;29.90;24.00;97821.03;5014409;28;1414;-47
2021/11/15 20:01:37;;;;;;;;;;;;;;;29.56;23.96;97823.31;5013544;28;1187;-49
2021/11/15 20:04:02;;;;;;;;;;;;;;;29.83;23.91;97835.03;5011807;28;1467;-50
2021/11/15 20:06:27;;;;;;;;;;;;;;;29.83;23.73;97832.38;5013833;28;1979;-49
2021/11/15 20:08:52;;;;;;;;;;;;;;;29.84;23.97;97823.41;5017085;28;1399;-47
2021/11/15 20:11:18;;;;;;;;;;;;;;;29.54;24.24;97824.41;5018184;28;1683;-48
2021/11/15 20:13:43;;;;;;;;;;;;;;;30.01;23.85;97822.69;5016635;28;1476;-47
2021/11/15 20:16:11;;;;;;;;;;;;;;;29.74;24.06;97821.63;5017956;28;1349;-48
2021/11/15 20:18:37;;;;;;;;;;;;;;;29.83;24.02;97825.25;5017709;28;1965;-49
2021/11/15 20:21:02;;;;;;;;;;;;;;;29.83;23.84;97821.75;5016815;28;1495;-49
2021/11/15 20:23:27;;;;;;;;;;;;;;;29.78;23.95;97821.31;5018243;28;1141;-48
2021/11/15 20:25:53;;;;;;;;;;;;;;;30.08;23.69;97822.97;5016565;28;1458;-49
2021/11/15 20:28:18;;;;;;;;;;;;;;;29.83;23.84;97816.44;5018066;28;1435;-50
2021/11/15 20:30:44;;;;;;;;;;;;;;;29.47;24.38;97819.63;5018241;28;1100;-49
2021/11/15 20:33:10;;;;;;;;;;;;;;;29.60;24.09;97811.41;5018818;28;1057;-49
2021/11/15 20:35:35;;;;;;;;;;;;;;;29.44;24.13;97803.13;5014107;28;1503;-50
2021/11/15 20:38:00;;;;;;;;;;;;;;;29.62;24.06;97801.47;5016809;28;1906;-48
2021/11/15 20:40:26;;;;;;;;;;;;;;;30.05;23.85;97812.63;5017932;28;1117;-48
2021/11/15 20:42:52;;;;;;;;;;;;;;;29.95;23.79;97799.34;5016519;28;1358;-49
2021/11/15 20:45:17;;;;;;;;;;;;;;;29.83;23.88;97808.44;5016443;28;1342;-48
2021/11/15 20:47:42;;;;;;;;;;;;;;;29.52;24.19;97794.47;5016426;28;1384;-48
2021/11/15 20:50:08;;;;;;;;;;;;;;;29.78;24.03;97805.38;5016524;28;1365;-48
2021/11/15 20:52:36;;;;;;;;;;;;;;;29.46;24.60;97806.47;5016390;28;1196;-49
2021/11/15 20:55:01;;;;;;;;;;;;;;;30.00;23.80;97811.22;5017547;28;1020;-48
2021/11/15 20:57:26;;;;;;;;;;;;;;;29.82;24.09;97806.78;5010258;28;1983;-48
2021/11/15 20:59:51;;;;;;;;;;;;;;;29.85;23.85;97815.28;5015120;28;1503;-48
2021/11/15 21:02:17;;;;;;;;;;;;;;;30.04;23.78;97809.13;5014827;28;1162;-48
2021/11/15 21:04:42;;;;;;;;;;;;;;;29.55;24.23;97808.34;5014831;28;1400;-47
2021/11/15 21:07:07;;;;;;;;;;;;;;;30.08;23.46;97807.00;5012986;28;1451;-48
2021/11/15 21:09:32;;;;;;;;;;;;;;;29.88;23.78;97809.72;5017521;28;1233;-49
2021/11/15 21:11:58;;;;;;;;;;;;;;;29.35;24.52;97802.13;5015375;28;1508;-48
2021/11/15 21:14:23;;;;;;;;;;;;;;;29.73;24.24;97803.97;5017927;28;1247;-49
2021/11/15 21:16:50;;;;;;;;;;;;;;;29.54;24.16;97795.16;5018691;28;1965;-48
2021/11/15 21:19:16;;;;;;;;;;;;;;;29.96;23.84;97801.84;5014749;28;1476;-49
2021/11/15 21:21:45;;;;;;;;;;;;;;;29.85;23.89;97801.16;5015685;28;1362;-49
2021/11/15 21:24:12;;;;;;;;;;;;;;;29.82;23.90;97802.28;5015119;28;1057;-49
2021/11/15 21:26:38;;;;;;;;;;;;;;;29.85;23.84;97809.97;5020466;28;1064;-48
2021/11/15 21:29:03;;;;;;;;;;;;;;;29.89;23.77;97810.56;5020873;28;1519;-49
2021/11/15 21:31:28;;;;;;;;;;;;;;;30.02;23.79;97803.94;5021115;28;1136;-48
2021/11/15 21:33:53;;;;;;;;;;;;;;;29.83;23.88;97809.28;5020072;28;1065;-49
2021/11/15 21:36:18;;;;;;;;;;;;;;;29.82;23.77;97812.94;5020080;28;1412;-48
2021/11/15 21:38:44;;;;;;;;;;;;;;;29.92;23.77;97810.25;5021056;28;1879;-48
2021/11/15 21:41:10;;;;;;;;;;;;;;;29.83;23.76;97809.28;5020491;28;1175;-49
2021/11/15 21:43:36;;;;;;;;;;;;;;;29.95;23.74;97816.13;5020126;28;1508;-48
2021/11/15 21:46:01;;;;;;;;;;;;;;;29.85;23.95;97811.78;5019156;28;1463;-49
2021/11/15 21:48:26;;;;;;;;;;;;;;;29.85;23.99;97809.97;5021054;28;1261;-49
2021/11/15 21:50:51;;;;;;;;;;;;;;;29.54;24.03;97796.00;5014799;28;1500;-50
2021/11/15 21:53:17;;;;;;;;;;;;;;;30.03;23.70;97799.47;5014088;28;1125;-48
2021/11/15 21:55:43;;;;;;;;;;;;;;;29.49;24.35;97795.56;5020912;28;1113;-48
2021/11/15 21:58:13;;;;;;;;;;;;;;;29.73;24.29;97792.50;5019480;28;1982;-48
2021/11/15 22:00:38;;;;;;;;;;;;;;;30.12;23.35;97795.97;5020082;28;1357;-48
2021/11/15 22:03:05;;;;;;;;;;;;;;;29.92;23.76;97799.63;5020739;28;1452;-51
2021/11/15 22:05:31;;;;;;;;;;;;;;;29.59;24.33;97799.09;5017028;28;1488;-48
2021/11/15 22:07:56;;;;;;;;;;;;;;;29.96;23.79;97793.03;5021140;28;1367;-49
2021/11/15 22:10:21;;;;;;;;;;;;;;;30.07;23.46;97798.19;5021222;28;1136;-49
2021/11/15 22:12:46;;;;;;;;;;;;;;;29.99;23.60;97803.38;5019309;28;1443;-47
2021/11/15 22:15:13;;;;;;;;;;;;;;;30.03;23.55;97808.28;5021135;28;1195;-48
2021/11/15 22:17:39;;;;;;;;;;;;;;;29.66;24.23;97794.91;5019008;28;1898;-47
2021/11/15 22:20:05;;;;;;;;;;;;;;;29.50;24.19;97799.94;5019223;28;1511;-48
2021/11/15 22:22:30;;;;;;;;;;;;;;;29.94;23.98;97803.84;5020499;28;1164;-47
2021/11/15 22:24:57;;;;;;;;;;;;;;;29.78;23.80;97800.06;5020695;28;1030;-48
2021/11/15 22:27:22;;;;;;;;;;;;;;;30.07;23.60;97800.00;5017687;28;1484;-48
2021/11/15 22:29:47;;;;;;;;;;;;;;;30.15;23.42;97802.81;5020327;28;1186;-48
2021/11/15 22:32:12;;;;;;;;;;;;;;;30.19;23.57;97805.06;5019315;28;1113;-48
2021/11/15 22:34:37;;;;;;;;;;;;;;;30.07;23.76;97800.00;5017735;28;1372;-47
2021/11/15 22:37:03;;;;;;;;;;;;;;;30.07;23.67;97787.53;5022111;28;1915;-48
2021/11/15 22:39:28;;;;;;;;;;;;;;;30.07;23.55;97790.22;5020624;28;1249;-47
2021/11/15 22:41:53;;;;;;;;;;;;;;;30.06;23.54;97791.19;5019714;28;1152;-48
2021/11/15 22:44:18;;;;;;;;;;;;;;;30.02;23.59;97782.69;5017396;28;1511;-48
2021/11/15 22:46:44;;;;;;;;;;;;;;;29.96;23.74;97787.72;5020317;28;1218;-48
2021/11/15 22:49:11;;;;;;;;;;;;;;;29.95;23.75;97784.22;5033812;28;1349;-48
2021/11/15 22:51:36;;;;;;;;;;;;;;;29.83;23.96;97788.00;5018846;28;998;-49
2021/11/15 22:54:01;;;;;;;;;;;;;;;29.85;23.97;97782.56;5019814;28;1207;-48
2021/11/15 22:56:26;;;;;;;;;;;;;;;30.01;23.50;97775.66;5019380;28;1040;-49
2021/11/15 22:58:52;;;;;;;;;;;;;;;30.03;23.54;97772.88;5019143;28;1914;-49
2021/11/15 23:01:17;;;;;;;;;;;;;;;29.94;23.81;97781.69;5019035;28;1312;-48
2021/11/15 23:03:42;;;;;;;;;;;;;;;30.11;23.45;97774.84;5016987;28;1492;-49
2021/11/15 23:06:08;;;;;;;;;;;;;;;30.07;23.53;97778.72;5015988;28;1378;-48
2021/11/15 23:08:34;;;;;;;;;;;;;;;29.84;23.95;97773.72;5018825;28;1267;-48
2021/11/15 23:10:59;;;;;;;;;;;;;;;30.03;23.70;97778.19;5018141;28;1033;-48
2021/11/15 23:13:25;;;;;;;;;;;;;;;30.00;23.60;97766.00;5016783;28;2079;-47
2021/11/15 23:15:50;;;;;;;;;;;;;;;29.93;23.79;97772.88;5019847;28;1183;-48
2021/11/15 23:18:15;;;;;;;;;;;;;;;29.81;23.67;97782.00;5017873;28;1981;-48
2021/11/15 23:20:41;;;;;;;;;;;;;;;29.94;23.79;97771.06;5017976;28;1456;-48
2021/11/15 23:23:06;;;;;;;;;;;;;;;29.91;23.81;97780.16;5019510;28;1016;-49
2021/11/15 23:25:32;;;;;;;;;;;;;;;30.11;23.27;97781.00;5017549;28;1152;-49
2021/11/15 23:27:59;;;;;;;;;;;;;;;30.00;23.30;97776.63;5017871;28;1288;-49
2021/11/15 23:30:25;;;;;;;;;;;;;;;30.06;23.61;97777.91;5015370;28;1460;-47
2021/11/15 23:32:50;;;;;;;;;;;;;;;29.99;23.53;97769.66;5017967;28;1183;-48
2021/11/15 23:35:15;;;;;;;;;;;;;;;29.99;23.56;97785.59;5017414;28;1567;-48
2021/11/15 23:37:41;;;;;;;;;;;;;;;29.97;23.24;97781.41;5018794;28;1977;-47
2021/11/15 23:40:06;;;;;;;;;;;;;;;30.14;23.38;97777.22;5019411;28;1156;-46
2021/11/15 23:42:31;;;;;;;;;;;;;;;30.01;23.25;97772.16;5017870;28;1456;-48
2021/11/15 23:44:57;;;;;;;;;;;;;;;30.07;23.24;97781.38;5017789;28;1972;-48
2021/11/15 23:47:22;;;;;;;;;;;;;;;30.04;23.35;97774.56;5017206;28;1399;-48
2021/11/15 23:49:50;;;;;;;;;;;;;;;30.05;23.48;97778.03;5018027;28;1368;-48
2021/11/15 23:52:19;;;;;;;;;;;;;;;30.33;23.09;97768.31;5016005;28;1448;-46
2021/11/15 23:54:44;;;;;;;;;;;;;;;30.00;23.32;97775.81;5015538;28;1085;-47
2021/11/15 23:57:09;;;;;;;;;;;;;;;29.94;23.46;97765.72;5018643;28;1987;-48
2021/11/15 23:59:35;;;;;;;;;;;;;;;30.05;23.14;97773.56;5017301;28;1376;-48
